CTH weather

Chester County G O Carlson Airport
Coatesville, Pennsylvania, United States

Public forecast

Using degrees Fahrenheit for public forecast. Weather courtesy of forecast.io.

METAR (pilot weather report)

Retrieved 2019/09/17 09:35 UTC (0 seconds ago):

KMQS 170935Z AUTO 00000KT 10SM BKN050 18/15 A3009 RMK AO2

TAF (pilot weather forecast)

Closest forecast is Lancaster Airport, 21.6 nm (39.9 km) WNW. Retrieved 2019/09/17 06:40 UTC (3 hours ago):

TAF KLNS 170537Z 1706/1806 05006KT P6SM VCSH BKN100 FM171600 07005KT P6SM SCT050 BKN100